sensor_id;sensor_type;location;lat;lon;timestamp;P1;durP1;ratioP1;P2;durP2;ratioP2
48002;SDS011;33768;48.578;11.574;2023-05-17T00:00:00;5.97;;;1.77;;
48002;SDS011;33768;48.578;11.574;2023-05-17T00:03:04;5.37;;;1.73;;
48002;SDS011;33768;48.578;11.574;2023-05-17T00:06:09;6.23;;;1.60;;
48002;SDS011;33768;48.578;11.574;2023-05-17T00:09:13;6.90;;;1.70;;
48002;SDS011;33768;48.578;11.574;2023-05-17T00:12:17;9.13;;;1.90;;
48002;SDS011;33768;48.578;11.574;2023-05-17T00:15:21;5.70;;;1.97;;
48002;SDS011;33768;48.578;11.574;2023-05-17T00:18:25;8.97;;;1.80;;
48002;SDS011;33768;48.578;11.574;2023-05-17T00:21:29;6.90;;;1.87;;
48002;SDS011;33768;48.578;11.574;2023-05-17T00:24:34;7.40;;;2.43;;
48002;SDS011;33768;48.578;11.574;2023-05-17T00:27:38;6.77;;;2.00;;
48002;SDS011;33768;48.578;11.574;2023-05-17T00:30:42;7.67;;;1.90;;
48002;SDS011;33768;48.578;11.574;2023-05-17T00:33:46;9.17;;;2.30;;
48002;SDS011;33768;48.578;11.574;2023-05-17T00:36:51;7.83;;;2.10;;
48002;SDS011;33768;48.578;11.574;2023-05-17T00:39:55;6.67;;;2.00;;
48002;SDS011;33768;48.578;11.574;2023-05-17T00:43:00;7.80;;;2.83;;
48002;SDS011;33768;48.578;11.574;2023-05-17T00:46:04;6.73;;;2.50;;
48002;SDS011;33768;48.578;11.574;2023-05-17T00:49:08;7.50;;;2.60;;
48002;SDS011;33768;48.578;11.574;2023-05-17T00:52:12;5.57;;;2.40;;
48002;SDS011;33768;48.578;11.574;2023-05-17T00:55:16;3.93;;;2.17;;
48002;SDS011;33768;48.578;11.574;2023-05-17T00:58:22;5.73;;;2.27;;
48002;SDS011;33768;48.578;11.574;2023-05-17T01:01:26;9.20;;;2.83;;
48002;SDS011;33768;48.578;11.574;2023-05-17T01:04:31;6.13;;;2.13;;
48002;SDS011;33768;48.578;11.574;2023-05-17T01:07:37;4.77;;;2.37;;
48002;SDS011;33768;48.578;11.574;2023-05-17T01:10:43;5.97;;;2.60;;
48002;SDS011;33768;48.578;11.574;2023-05-17T01:28:04;11.90;;;2.70;;
48002;SDS011;33768;48.578;11.574;2023-05-17T01:31:08;7.53;;;2.90;;
48002;SDS011;33768;48.578;11.574;2023-05-17T01:34:22;6.00;;;2.57;;
48002;SDS011;33768;48.578;11.574;2023-05-17T01:37:27;7.63;;;2.60;;
48002;SDS011;33768;48.578;11.574;2023-05-17T01:40:35;7.57;;;2.60;;
48002;SDS011;33768;48.578;11.574;2023-05-17T01:43:47;5.93;;;2.30;;
48002;SDS011;33768;48.578;11.574;2023-05-17T01:47:07;6.87;;;2.90;;
48002;SDS011;33768;48.578;11.574;2023-05-17T01:50:17;6.87;;;2.43;;
48002;SDS011;33768;48.578;11.574;2023-05-17T01:53:31;4.87;;;2.00;;
48002;SDS011;33768;48.578;11.574;2023-05-17T01:56:49;3.57;;;2.13;;
48002;SDS011;33768;48.578;11.574;2023-05-17T02:00:02;3.80;;;1.67;;
48002;SDS011;33768;48.578;11.574;2023-05-17T02:03:18;3.37;;;1.60;;
48002;SDS011;33768;48.578;11.574;2023-05-17T02:06:25;4.47;;;1.73;;
48002;SDS011;33768;48.578;11.574;2023-05-17T02:09:29;3.67;;;1.97;;
48002;SDS011;33768;48.578;11.574;2023-05-17T02:12:33;6.50;;;2.07;;
48002;SDS011;33768;48.578;11.574;2023-05-17T02:15:38;4.37;;;1.83;;
48002;SDS011;33768;48.578;11.574;2023-05-17T02:18:43;2.70;;;1.80;;
48002;SDS011;33768;48.578;11.574;2023-05-17T02:21:47;3.87;;;1.80;;
48002;SDS011;33768;48.578;11.574;2023-05-17T02:24:51;4.77;;;1.90;;
48002;SDS011;33768;48.578;11.574;2023-05-17T02:27:56;5.33;;;2.03;;
48002;SDS011;33768;48.578;11.574;2023-05-17T02:31:00;4.93;;;1.70;;
48002;SDS011;33768;48.578;11.574;2023-05-17T02:34:04;4.90;;;1.67;;
48002;SDS011;33768;48.578;11.574;2023-05-17T02:37:08;5.70;;;1.70;;
48002;SDS011;33768;48.578;11.574;2023-05-17T02:40:14;4.77;;;1.90;;
48002;SDS011;33768;48.578;11.574;2023-05-17T02:43:18;6.70;;;1.80;;
48002;SDS011;33768;48.578;11.574;2023-05-17T02:46:22;4.03;;;1.40;;
48002;SDS011;33768;48.578;11.574;2023-05-17T02:49:26;6.93;;;1.60;;
48002;SDS011;33768;48.578;11.574;2023-05-17T02:52:30;5.23;;;1.70;;
48002;SDS011;33768;48.578;11.574;2023-05-17T02:55:35;4.83;;;1.70;;
48002;SDS011;33768;48.578;11.574;2023-05-17T02:58:39;4.10;;;1.60;;
48002;SDS011;33768;48.578;11.574;2023-05-17T03:01:43;3.83;;;1.50;;
48002;SDS011;33768;48.578;11.574;2023-05-17T03:04:47;2.67;;;1.60;;
48002;SDS011;33768;48.578;11.574;2023-05-17T03:07:51;2.47;;;1.50;;
48002;SDS011;33768;48.578;11.574;2023-05-17T03:10:56;5.47;;;1.80;;
48002;SDS011;33768;48.578;11.574;2023-05-17T03:13:59;2.47;;;1.43;;
48002;SDS011;33768;48.578;11.574;2023-05-17T03:17:04;3.90;;;1.50;;
48002;SDS011;33768;48.578;11.574;2023-05-17T03:20:11;2.53;;;1.67;;
48002;SDS011;33768;48.578;11.574;2023-05-17T03:23:16;4.70;;;1.60;;
48002;SDS011;33768;48.578;11.574;2023-05-17T03:26:29;2.93;;;1.20;;
48002;SDS011;33768;48.578;11.574;2023-05-17T03:29:35;6.90;;;1.37;;
48002;SDS011;33768;48.578;11.574;2023-05-17T03:32:40;3.70;;;1.30;;
48002;SDS011;33768;48.578;11.574;2023-05-17T03:35:44;2.37;;;1.30;;
48002;SDS011;33768;48.578;11.574;2023-05-17T03:38:49;5.43;;;1.57;;
48002;SDS011;33768;48.578;11.574;2023-05-17T03:41:53;4.10;;;1.40;;
48002;SDS011;33768;48.578;11.574;2023-05-17T03:44:59;4.63;;;1.50;;
48002;SDS011;33768;48.578;11.574;2023-05-17T03:48:04;2.27;;;1.47;;
48002;SDS011;33768;48.578;11.574;2023-05-17T03:51:08;3.10;;;1.47;;
48002;SDS011;33768;48.578;11.574;2023-05-17T03:54:12;5.47;;;1.20;;
48002;SDS011;33768;48.578;11.574;2023-05-17T03:57:16;2.70;;;1.63;;
48002;SDS011;33768;48.578;11.574;2023-05-17T04:00:20;6.50;;;1.30;;
48002;SDS011;33768;48.578;11.574;2023-05-17T04:03:24;2.83;;;1.40;;
48002;SDS011;33768;48.578;11.574;2023-05-17T04:06:28;6.60;;;1.80;;
48002;SDS011;33768;48.578;11.574;2023-05-17T04:09:33;4.67;;;1.30;;
48002;SDS011;33768;48.578;11.574;2023-05-17T04:12:37;3.97;;;1.70;;
48002;SDS011;33768;48.578;11.574;2023-05-17T04:15:41;3.67;;;1.33;;
48002;SDS011;33768;48.578;11.574;2023-05-17T04:18:45;5.60;;;1.33;;
48002;SDS011;33768;48.578;11.574;2023-05-17T04:21:49;5.10;;;1.30;;
48002;SDS011;33768;48.578;11.574;2023-05-17T04:24:57;3.80;;;1.40;;
48002;SDS011;33768;48.578;11.574;2023-05-17T04:28:02;5.37;;;1.23;;
48002;SDS011;33768;48.578;11.574;2023-05-17T04:31:06;4.63;;;1.37;;
48002;SDS011;33768;48.578;11.574;2023-05-17T04:34:11;3.37;;;1.23;;
48002;SDS011;33768;48.578;11.574;2023-05-17T04:37:15;3.97;;;1.27;;
48002;SDS011;33768;48.578;11.574;2023-05-17T04:40:21;6.23;;;1.70;;
48002;SDS011;33768;48.578;11.574;2023-05-17T04:43:27;2.87;;;1.30;;
48002;SDS011;33768;48.578;11.574;2023-05-17T04:46:31;4.30;;;1.37;;
48002;SDS011;33768;48.578;11.574;2023-05-17T04:49:35;5.27;;;1.57;;
48002;SDS011;33768;48.578;11.574;2023-05-17T04:52:40;4.93;;;1.40;;
48002;SDS011;33768;48.578;11.574;2023-05-17T04:55:45;1.63;;;1.30;;
48002;SDS011;33768;48.578;11.574;2023-05-17T04:58:52;3.77;;;1.20;;
48002;SDS011;33768;48.578;11.574;2023-05-17T05:01:56;4.97;;;1.43;;
48002;SDS011;33768;48.578;11.574;2023-05-17T05:05:01;3.40;;;1.20;;
48002;SDS011;33768;48.578;11.574;2023-05-17T05:08:08;5.37;;;1.30;;
48002;SDS011;33768;48.578;11.574;2023-05-17T05:11:12;2.77;;;0.90;;
48002;SDS011;33768;48.578;11.574;2023-05-17T05:14:16;5.03;;;1.10;;
48002;SDS011;33768;48.578;11.574;2023-05-17T05:17:20;3.87;;;1.17;;
48002;SDS011;33768;48.578;11.574;2023-05-17T05:20:24;3.40;;;1.07;;
48002;SDS011;33768;48.578;11.574;2023-05-17T05:23:29;6.37;;;1.40;;
48002;SDS011;33768;48.578;11.574;2023-05-17T05:26:33;4.73;;;1.30;;
48002;SDS011;33768;48.578;11.574;2023-05-17T05:29:40;6.30;;;1.60;;
48002;SDS011;33768;48.578;11.574;2023-05-17T05:32:45;4.40;;;1.40;;
48002;SDS011;33768;48.578;11.574;2023-05-17T05:35:49;1.93;;;1.10;;
48002;SDS011;33768;48.578;11.574;2023-05-17T05:38:53;5.83;;;1.50;;
48002;SDS011;33768;48.578;11.574;2023-05-17T05:41:58;3.10;;;1.27;;
48002;SDS011;33768;48.578;11.574;2023-05-17T05:45:02;3.47;;;1.40;;
48002;SDS011;33768;48.578;11.574;2023-05-17T05:48:06;2.47;;;1.17;;
48002;SDS011;33768;48.578;11.574;2023-05-17T05:51:11;8.80;;;1.40;;
48002;SDS011;33768;48.578;11.574;2023-05-17T05:54:19;4.17;;;1.23;;
48002;SDS011;33768;48.578;11.574;2023-05-17T05:57:23;5.37;;;2.10;;
48002;SDS011;33768;48.578;11.574;2023-05-17T06:00:27;9.40;;;1.90;;
48002;SDS011;33768;48.578;11.574;2023-05-17T06:03:31;5.57;;;1.27;;
48002;SDS011;33768;48.578;11.574;2023-05-17T06:06:36;4.90;;;2.30;;
48002;SDS011;33768;48.578;11.574;2023-05-17T06:09:40;5.87;;;1.40;;
48002;SDS011;33768;48.578;11.574;2023-05-17T06:12:44;3.10;;;1.60;;
48002;SDS011;33768;48.578;11.574;2023-05-17T06:15:49;5.50;;;1.53;;
48002;SDS011;33768;48.578;11.574;2023-05-17T06:18:53;3.40;;;1.53;;
48002;SDS011;33768;48.578;11.574;2023-05-17T06:21:58;5.33;;;1.27;;
48002;SDS011;33768;48.578;11.574;2023-05-17T06:25:02;4.03;;;1.50;;
48002;SDS011;33768;48.578;11.574;2023-05-17T06:28:06;6.93;;;1.40;;
48002;SDS011;33768;48.578;11.574;2023-05-17T06:31:12;3.37;;;1.30;;
48002;SDS011;33768;48.578;11.574;2023-05-17T06:34:15;6.20;;;1.97;;
48002;SDS011;33768;48.578;11.574;2023-05-17T06:37:19;4.47;;;1.63;;
48002;SDS011;33768;48.578;11.574;2023-05-17T06:40:23;5.93;;;1.50;;
48002;SDS011;33768;48.578;11.574;2023-05-17T06:43:28;8.90;;;1.93;;
48002;SDS011;33768;48.578;11.574;2023-05-17T06:46:32;5.27;;;1.50;;
48002;SDS011;33768;48.578;11.574;2023-05-17T06:49:36;7.10;;;1.47;;
48002;SDS011;33768;48.578;11.574;2023-05-17T06:52:40;7.03;;;1.80;;
48002;SDS011;33768;48.578;11.574;2023-05-17T06:55:44;4.20;;;1.80;;
48002;SDS011;33768;48.578;11.574;2023-05-17T06:58:49;4.57;;;1.60;;
48002;SDS011;33768;48.578;11.574;2023-05-17T07:01:53;7.60;;;1.87;;
48002;SDS011;33768;48.578;11.574;2023-05-17T07:04:57;4.47;;;1.60;;
48002;SDS011;33768;48.578;11.574;2023-05-17T07:08:01;6.23;;;1.80;;
48002;SDS011;33768;48.578;11.574;2023-05-17T07:11:05;3.13;;;1.47;;
48002;SDS011;33768;48.578;11.574;2023-05-17T07:14:09;4.60;;;1.50;;
48002;SDS011;33768;48.578;11.574;2023-05-17T07:17:14;6.83;;;2.20;;
48002;SDS011;33768;48.578;11.574;2023-05-17T07:20:18;4.00;;;1.83;;
48002;SDS011;33768;48.578;11.574;2023-05-17T07:23:22;4.23;;;2.20;;
48002;SDS011;33768;48.578;11.574;2023-05-17T07:26:26;3.47;;;1.93;;
48002;SDS011;33768;48.578;11.574;2023-05-17T07:29:30;6.70;;;2.10;;
48002;SDS011;33768;48.578;11.574;2023-05-17T07:32:34;3.83;;;2.07;;
48002;SDS011;33768;48.578;11.574;2023-05-17T07:35:38;4.27;;;2.00;;
48002;SDS011;33768;48.578;11.574;2023-05-17T07:38:42;6.37;;;2.30;;
48002;SDS011;33768;48.578;11.574;2023-05-17T07:41:46;6.33;;;1.83;;
48002;SDS011;33768;48.578;11.574;2023-05-17T07:44:51;8.80;;;3.27;;
48002;SDS011;33768;48.578;11.574;2023-05-17T07:47:55;5.30;;;2.50;;
48002;SDS011;33768;48.578;11.574;2023-05-17T07:50:59;5.47;;;2.10;;
48002;SDS011;33768;48.578;11.574;2023-05-17T07:54:03;7.10;;;2.43;;
48002;SDS011;33768;48.578;11.574;2023-05-17T07:57:08;4.33;;;1.77;;
48002;SDS011;33768;48.578;11.574;2023-05-17T08:00:12;5.47;;;1.90;;
48002;SDS011;33768;48.578;11.574;2023-05-17T08:03:16;3.70;;;1.70;;
48002;SDS011;33768;48.578;11.574;2023-05-17T08:06:20;5.40;;;1.93;;
48002;SDS011;33768;48.578;11.574;2023-05-17T08:09:25;4.07;;;1.90;;
48002;SDS011;33768;48.578;11.574;2023-05-17T08:12:29;8.90;;;2.10;;
48002;SDS011;33768;48.578;11.574;2023-05-17T08:15:33;8.27;;;2.37;;
48002;SDS011;33768;48.578;11.574;2023-05-17T08:18:37;4.97;;;1.80;;
48002;SDS011;33768;48.578;11.574;2023-05-17T08:21:41;8.60;;;2.33;;
48002;SDS011;33768;48.578;11.574;2023-05-17T08:24:46;3.67;;;2.07;;
48002;SDS011;33768;48.578;11.574;2023-05-17T08:27:50;4.17;;;1.90;;
48002;SDS011;33768;48.578;11.574;2023-05-17T08:30:55;4.97;;;2.20;;
48002;SDS011;33768;48.578;11.574;2023-05-17T08:33:59;5.90;;;2.00;;
48002;SDS011;33768;48.578;11.574;2023-05-17T08:37:03;8.80;;;2.00;;
48002;SDS011;33768;48.578;11.574;2023-05-17T08:40:07;5.47;;;1.90;;
48002;SDS011;33768;48.578;11.574;2023-05-17T08:43:12;4.43;;;1.80;;
48002;SDS011;33768;48.578;11.574;2023-05-17T08:46:17;6.40;;;2.30;;
48002;SDS011;33768;48.578;11.574;2023-05-17T08:49:24;4.93;;;2.20;;
48002;SDS011;33768;48.578;11.574;2023-05-17T08:52:31;4.90;;;2.10;;
48002;SDS011;33768;48.578;11.574;2023-05-17T08:55:35;3.53;;;1.97;;
48002;SDS011;33768;48.578;11.574;2023-05-17T08:58:41;5.57;;;2.10;;
48002;SDS011;33768;48.578;11.574;2023-05-17T09:01:46;3.43;;;1.87;;
48002;SDS011;33768;48.578;11.574;2023-05-17T09:04:53;6.20;;;2.10;;
48002;SDS011;33768;48.578;11.574;2023-05-17T09:07:59;5.47;;;2.23;;
48002;SDS011;33768;48.578;11.574;2023-05-17T09:11:03;9.93;;;2.23;;
48002;SDS011;33768;48.578;11.574;2023-05-17T09:14:07;3.43;;;1.93;;
48002;SDS011;33768;48.578;11.574;2023-05-17T09:17:18;5.23;;;2.20;;
48002;SDS011;33768;48.578;11.574;2023-05-17T09:20:25;5.17;;;2.33;;
48002;SDS011;33768;48.578;11.574;2023-05-17T09:23:37;4.30;;;1.87;;
48002;SDS011;33768;48.578;11.574;2023-05-17T09:26:42;7.30;;;2.20;;
48002;SDS011;33768;48.578;11.574;2023-05-17T09:29:47;3.80;;;1.83;;
48002;SDS011;33768;48.578;11.574;2023-05-17T09:32:52;5.30;;;2.40;;
48002;SDS011;33768;48.578;11.574;2023-05-17T09:35:56;3.57;;;2.20;;
48002;SDS011;33768;48.578;11.574;2023-05-17T09:39:01;5.10;;;2.30;;
48002;SDS011;33768;48.578;11.574;2023-05-17T09:42:08;4.67;;;2.50;;
48002;SDS011;33768;48.578;11.574;2023-05-17T09:45:12;3.13;;;2.00;;
48002;SDS011;33768;48.578;11.574;2023-05-17T09:48:25;5.03;;;2.10;;
48002;SDS011;33768;48.578;11.574;2023-05-17T09:51:33;5.13;;;2.17;;
48002;SDS011;33768;48.578;11.574;2023-05-17T09:54:50;4.93;;;2.27;;
48002;SDS011;33768;48.578;11.574;2023-05-17T09:57:56;4.33;;;2.30;;
48002;SDS011;33768;48.578;11.574;2023-05-17T10:01:06;4.90;;;2.30;;
48002;SDS011;33768;48.578;11.574;2023-05-17T10:04:13;7.40;;;2.20;;
48002;SDS011;33768;48.578;11.574;2023-05-17T10:07:25;3.60;;;1.90;;
48002;SDS011;33768;48.578;11.574;2023-05-17T10:10:30;3.43;;;1.93;;
48002;SDS011;33768;48.578;11.574;2023-05-17T10:17:04;4.23;;;2.00;;
48002;SDS011;33768;48.578;11.574;2023-05-17T10:20:11;3.63;;;2.20;;
48002;SDS011;33768;48.578;11.574;2023-05-17T10:23:17;3.90;;;2.17;;
48002;SDS011;33768;48.578;11.574;2023-05-17T10:26:22;4.53;;;2.10;;
48002;SDS011;33768;48.578;11.574;2023-05-17T10:29:27;4.67;;;2.30;;
48002;SDS011;33768;48.578;11.574;2023-05-17T10:32:33;3.80;;;1.97;;
48002;SDS011;33768;48.578;11.574;2023-05-17T10:35:39;4.10;;;2.20;;
48002;SDS011;33768;48.578;11.574;2023-05-17T10:38:45;5.37;;;2.03;;
48002;SDS011;33768;48.578;11.574;2023-05-17T10:41:50;5.33;;;2.27;;
48002;SDS011;33768;48.578;11.574;2023-05-17T10:44:58;4.33;;;2.20;;
48002;SDS011;33768;48.578;11.574;2023-05-17T10:48:04;5.10;;;2.17;;
48002;SDS011;33768;48.578;11.574;2023-05-17T10:51:09;3.40;;;2.50;;
48002;SDS011;33768;48.578;11.574;2023-05-17T10:54:14;5.33;;;3.07;;
48002;SDS011;33768;48.578;11.574;2023-05-17T11:00:39;4.63;;;2.27;;
48002;SDS011;33768;48.578;11.574;2023-05-17T11:03:43;3.77;;;2.30;;
48002;SDS011;33768;48.578;11.574;2023-05-17T11:06:50;5.03;;;3.40;;
48002;SDS011;33768;48.578;11.574;2023-05-17T11:13:02;6.47;;;2.93;;
48002;SDS011;33768;48.578;11.574;2023-05-17T11:16:35;3.57;;;2.43;;
48002;SDS011;33768;48.578;11.574;2023-05-17T11:22:57;5.87;;;3.47;;
48002;SDS011;33768;48.578;11.574;2023-05-17T11:26:22;4.57;;;2.77;;
48002;SDS011;33768;48.578;11.574;2023-05-17T11:29:31;5.50;;;2.80;;
48002;SDS011;33768;48.578;11.574;2023-05-17T11:32:35;6.73;;;4.47;;
48002;SDS011;33768;48.578;11.574;2023-05-17T11:35:39;5.60;;;3.17;;
48002;SDS011;33768;48.578;11.574;2023-05-17T11:38:43;4.87;;;2.10;;
48002;SDS011;33768;48.578;11.574;2023-05-17T11:42:12;7.47;;;2.47;;
48002;SDS011;33768;48.578;11.574;2023-05-17T11:45:27;4.73;;;2.27;;
48002;SDS011;33768;48.578;11.574;2023-05-17T11:48:45;9.03;;;2.17;;
48002;SDS011;33768;48.578;11.574;2023-05-17T11:51:50;4.57;;;1.93;;
48002;SDS011;33768;48.578;11.574;2023-05-17T11:54:55;6.30;;;3.07;;
48002;SDS011;33768;48.578;11.574;2023-05-17T11:58:01;16.60;;;2.50;;
48002;SDS011;33768;48.578;11.574;2023-05-17T12:01:06;8.23;;;3.97;;
48002;SDS011;33768;48.578;11.574;2023-05-17T12:04:12;5.83;;;3.33;;
48002;SDS011;33768;48.578;11.574;2023-05-17T12:07:36;8.10;;;3.83;;
48002;SDS011;33768;48.578;11.574;2023-05-17T12:10:50;9.17;;;2.73;;
48002;SDS011;33768;48.578;11.574;2023-05-17T12:13:55;5.67;;;2.70;;
48002;SDS011;33768;48.578;11.574;2023-05-17T12:16:59;4.13;;;2.50;;
48002;SDS011;33768;48.578;11.574;2023-05-17T12:20:06;5.20;;;2.40;;
48002;SDS011;33768;48.578;11.574;2023-05-17T12:23:12;3.47;;;2.00;;
48002;SDS011;33768;48.578;11.574;2023-05-17T12:26:16;5.83;;;2.67;;
48002;SDS011;33768;48.578;11.574;2023-05-17T12:29:21;5.17;;;2.50;;
48002;SDS011;33768;48.578;11.574;2023-05-17T12:32:26;6.70;;;2.40;;
48002;SDS011;33768;48.578;11.574;2023-05-17T12:35:30;5.07;;;2.53;;
48002;SDS011;33768;48.578;11.574;2023-05-17T12:38:35;5.33;;;2.97;;
48002;SDS011;33768;48.578;11.574;2023-05-17T12:41:42;5.57;;;2.43;;
48002;SDS011;33768;48.578;11.574;2023-05-17T12:44:46;4.13;;;2.53;;
48002;SDS011;33768;48.578;11.574;2023-05-17T12:47:51;5.77;;;2.50;;
48002;SDS011;33768;48.578;11.574;2023-05-17T12:50:55;5.83;;;2.57;;
48002;SDS011;33768;48.578;11.574;2023-05-17T12:53:59;4.60;;;2.77;;
48002;SDS011;33768;48.578;11.574;2023-05-17T12:57:09;5.53;;;3.10;;
48002;SDS011;33768;48.578;11.574;2023-05-17T13:00:17;5.03;;;2.13;;
48002;SDS011;33768;48.578;11.574;2023-05-17T13:03:21;9.40;;;3.00;;
48002;SDS011;33768;48.578;11.574;2023-05-17T13:06:26;5.87;;;2.27;;
48002;SDS011;33768;48.578;11.574;2023-05-17T13:09:31;4.03;;;2.43;;
48002;SDS011;33768;48.578;11.574;2023-05-17T13:12:36;5.70;;;2.50;;
48002;SDS011;33768;48.578;11.574;2023-05-17T13:15:43;6.20;;;2.83;;
48002;SDS011;33768;48.578;11.574;2023-05-17T13:18:52;5.20;;;2.77;;
48002;SDS011;33768;48.578;11.574;2023-05-17T13:21:58;5.37;;;2.90;;
48002;SDS011;33768;48.578;11.574;2023-05-17T13:25:02;5.60;;;2.70;;
48002;SDS011;33768;48.578;11.574;2023-05-17T13:28:06;5.23;;;2.70;;
48002;SDS011;33768;48.578;11.574;2023-05-17T13:31:11;6.93;;;3.00;;
48002;SDS011;33768;48.578;11.574;2023-05-17T13:34:15;4.87;;;2.60;;
48002;SDS011;33768;48.578;11.574;2023-05-17T13:37:19;5.13;;;2.70;;
48002;SDS011;33768;48.578;11.574;2023-05-17T13:40:24;7.07;;;3.60;;
48002;SDS011;33768;48.578;11.574;2023-05-17T13:43:28;11.13;;;4.70;;
48002;SDS011;33768;48.578;11.574;2023-05-17T13:46:32;11.07;;;4.90;;
48002;SDS011;33768;48.578;11.574;2023-05-17T13:49:36;5.20;;;3.07;;
48002;SDS011;33768;48.578;11.574;2023-05-17T13:52:40;8.10;;;3.03;;
48002;SDS011;33768;48.578;11.574;2023-05-17T13:55:44;7.70;;;3.07;;
48002;SDS011;33768;48.578;11.574;2023-05-17T13:58:49;9.30;;;3.10;;
48002;SDS011;33768;48.578;11.574;2023-05-17T14:01:53;5.57;;;3.13;;
48002;SDS011;33768;48.578;11.574;2023-05-17T14:04:57;4.87;;;3.20;;
48002;SDS011;33768;48.578;11.574;2023-05-17T14:08:02;8.03;;;3.40;;
48002;SDS011;33768;48.578;11.574;2023-05-17T14:11:06;6.50;;;3.10;;
48002;SDS011;33768;48.578;11.574;2023-05-17T14:14:11;5.47;;;3.70;;
48002;SDS011;33768;48.578;11.574;2023-05-17T14:17:15;5.77;;;3.50;;
48002;SDS011;33768;48.578;11.574;2023-05-17T14:20:19;7.53;;;3.57;;
48002;SDS011;33768;48.578;11.574;2023-05-17T14:23:23;6.63;;;3.23;;
48002;SDS011;33768;48.578;11.574;2023-05-17T14:26:27;5.23;;;3.53;;
48002;SDS011;33768;48.578;11.574;2023-05-17T14:29:31;7.13;;;3.60;;
48002;SDS011;33768;48.578;11.574;2023-05-17T14:32:35;6.53;;;3.37;;
48002;SDS011;33768;48.578;11.574;2023-05-17T14:35:41;9.47;;;3.60;;
48002;SDS011;33768;48.578;11.574;2023-05-17T14:38:45;6.80;;;3.47;;
48002;SDS011;33768;48.578;11.574;2023-05-17T14:41:50;9.07;;;3.60;;
48002;SDS011;33768;48.578;11.574;2023-05-17T14:44:54;8.23;;;3.63;;
48002;SDS011;33768;48.578;11.574;2023-05-17T14:47:58;6.63;;;3.40;;
48002;SDS011;33768;48.578;11.574;2023-05-17T14:51:02;6.77;;;3.73;;
48002;SDS011;33768;48.578;11.574;2023-05-17T14:54:06;6.73;;;3.83;;
48002;SDS011;33768;48.578;11.574;2023-05-17T14:57:10;5.40;;;3.40;;
48002;SDS011;33768;48.578;11.574;2023-05-17T15:00:15;6.47;;;3.20;;
48002;SDS011;33768;48.578;11.574;2023-05-17T15:03:19;7.47;;;3.60;;
48002;SDS011;33768;48.578;11.574;2023-05-17T15:06:24;6.30;;;3.50;;
48002;SDS011;33768;48.578;11.574;2023-05-17T15:09:28;5.77;;;3.50;;
48002;SDS011;33768;48.578;11.574;2023-05-17T15:12:33;5.97;;;3.23;;
48002;SDS011;33768;48.578;11.574;2023-05-17T15:15:37;7.27;;;3.63;;
48002;SDS011;33768;48.578;11.574;2023-05-17T15:18:43;9.63;;;3.33;;
48002;SDS011;33768;48.578;11.574;2023-05-17T15:21:47;10.63;;;2.80;;
48002;SDS011;33768;48.578;11.574;2023-05-17T15:24:51;5.47;;;2.73;;
48002;SDS011;33768;48.578;11.574;2023-05-17T15:27:57;6.47;;;2.97;;
48002;SDS011;33768;48.578;11.574;2023-05-17T15:31:01;6.37;;;2.93;;
48002;SDS011;33768;48.578;11.574;2023-05-17T15:34:09;7.80;;;2.83;;
48002;SDS011;33768;48.578;11.574;2023-05-17T15:37:13;6.87;;;3.00;;
48002;SDS011;33768;48.578;11.574;2023-05-17T15:40:17;5.37;;;2.20;;
48002;SDS011;33768;48.578;11.574;2023-05-17T15:43:21;4.50;;;2.30;;
48002;SDS011;33768;48.578;11.574;2023-05-17T15:46:25;17.87;;;3.50;;
48002;SDS011;33768;48.578;11.574;2023-05-17T15:49:29;4.87;;;2.50;;
48002;SDS011;33768;48.578;11.574;2023-05-17T15:52:33;5.03;;;2.57;;
48002;SDS011;33768;48.578;11.574;2023-05-17T15:55:37;5.10;;;2.47;;
48002;SDS011;33768;48.578;11.574;2023-05-17T15:58:42;5.27;;;2.27;;
48002;SDS011;33768;48.578;11.574;2023-05-17T16:01:46;6.73;;;2.67;;
48002;SDS011;33768;48.578;11.574;2023-05-17T16:04:50;6.23;;;2.87;;
48002;SDS011;33768;48.578;11.574;2023-05-17T16:07:54;4.57;;;3.07;;
48002;SDS011;33768;48.578;11.574;2023-05-17T16:10:58;7.30;;;2.50;;
48002;SDS011;33768;48.578;11.574;2023-05-17T16:14:03;5.67;;;2.80;;
48002;SDS011;33768;48.578;11.574;2023-05-17T16:17:07;8.10;;;1.87;;
48002;SDS011;33768;48.578;11.574;2023-05-17T16:20:11;5.57;;;2.60;;
48002;SDS011;33768;48.578;11.574;2023-05-17T16:23:15;6.57;;;2.40;;
48002;SDS011;33768;48.578;11.574;2023-05-17T16:26:19;7.70;;;3.87;;
48002;SDS011;33768;48.578;11.574;2023-05-17T16:29:24;6.93;;;3.40;;
48002;SDS011;33768;48.578;11.574;2023-05-17T16:32:28;5.17;;;2.40;;
48002;SDS011;33768;48.578;11.574;2023-05-17T16:35:32;5.93;;;2.63;;
48002;SDS011;33768;48.578;11.574;2023-05-17T16:38:36;5.63;;;2.50;;
48002;SDS011;33768;48.578;11.574;2023-05-17T16:41:40;4.53;;;2.40;;
48002;SDS011;33768;48.578;11.574;2023-05-17T16:44:44;6.07;;;2.70;;
48002;SDS011;33768;48.578;11.574;2023-05-17T16:47:49;5.23;;;2.47;;
48002;SDS011;33768;48.578;11.574;2023-05-17T16:50:52;5.80;;;2.80;;
48002;SDS011;33768;48.578;11.574;2023-05-17T16:53:56;5.50;;;2.67;;
48002;SDS011;33768;48.578;11.574;2023-05-17T16:57:01;4.00;;;2.30;;
48002;SDS011;33768;48.578;11.574;2023-05-17T17:00:07;7.33;;;2.30;;
48002;SDS011;33768;48.578;11.574;2023-05-17T17:03:13;4.03;;;2.43;;
48002;SDS011;33768;48.578;11.574;2023-05-17T17:06:17;5.20;;;2.80;;
48002;SDS011;33768;48.578;11.574;2023-05-17T17:09:21;5.13;;;2.53;;
48002;SDS011;33768;48.578;11.574;2023-05-17T17:12:25;3.93;;;2.50;;
48002;SDS011;33768;48.578;11.574;2023-05-17T17:15:29;4.40;;;2.60;;
48002;SDS011;33768;48.578;11.574;2023-05-17T17:18:33;6.40;;;2.80;;
48002;SDS011;33768;48.578;11.574;2023-05-17T17:21:38;6.27;;;2.70;;
48002;SDS011;33768;48.578;11.574;2023-05-17T17:24:41;3.73;;;2.50;;
48002;SDS011;33768;48.578;11.574;2023-05-17T17:27:46;5.67;;;2.33;;
48002;SDS011;33768;48.578;11.574;2023-05-17T17:30:50;8.00;;;2.73;;
48002;SDS011;33768;48.578;11.574;2023-05-17T17:33:54;6.60;;;2.67;;
48002;SDS011;33768;48.578;11.574;2023-05-17T17:36:59;5.43;;;2.90;;
48002;SDS011;33768;48.578;11.574;2023-05-17T17:40:03;6.23;;;2.80;;
48002;SDS011;33768;48.578;11.574;2023-05-17T17:43:08;5.43;;;2.70;;
48002;SDS011;33768;48.578;11.574;2023-05-17T17:46:12;4.93;;;2.47;;
48002;SDS011;33768;48.578;11.574;2023-05-17T17:49:16;6.23;;;2.80;;
48002;SDS011;33768;48.578;11.574;2023-05-17T17:52:20;6.67;;;2.53;;
48002;SDS011;33768;48.578;11.574;2023-05-17T17:55:24;6.20;;;2.80;;
48002;SDS011;33768;48.578;11.574;2023-05-17T17:58:28;6.63;;;2.93;;
48002;SDS011;33768;48.578;11.574;2023-05-17T18:01:33;4.97;;;2.60;;
48002;SDS011;33768;48.578;11.574;2023-05-17T18:04:40;11.33;;;3.03;;
48002;SDS011;33768;48.578;11.574;2023-05-17T18:07:44;4.33;;;2.43;;
48002;SDS011;33768;48.578;11.574;2023-05-17T18:10:48;6.00;;;2.80;;
48002;SDS011;33768;48.578;11.574;2023-05-17T18:13:53;5.93;;;2.77;;
48002;SDS011;33768;48.578;11.574;2023-05-17T18:16:58;5.93;;;2.70;;
48002;SDS011;33768;48.578;11.574;2023-05-17T18:20:02;6.90;;;2.90;;
48002;SDS011;33768;48.578;11.574;2023-05-17T18:23:07;5.63;;;2.70;;
48002;SDS011;33768;48.578;11.574;2023-05-17T18:26:11;3.90;;;2.27;;
48002;SDS011;33768;48.578;11.574;2023-05-17T18:29:15;7.53;;;2.80;;
48002;SDS011;33768;48.578;11.574;2023-05-17T18:32:19;7.60;;;3.20;;
48002;SDS011;33768;48.578;11.574;2023-05-17T18:35:23;8.70;;;2.87;;
48002;SDS011;33768;48.578;11.574;2023-05-17T18:38:27;6.10;;;2.87;;
48002;SDS011;33768;48.578;11.574;2023-05-17T18:41:32;5.87;;;2.93;;
48002;SDS011;33768;48.578;11.574;2023-05-17T18:44:36;6.23;;;2.77;;